Terminal Aerodrome Forecast
Issued by NWS

Home | Current Version | Previous Version | Text Only | Print | Product List | Glossary On
Versions: 1 2 3 4 5 6 7 8 9 10 11 12 13 14 15 16 17 18 19 20 21 22 23 24 25 26 27 28 29 30 31 32 33 34 35 36 37 38
000
FTAK31 PANC 242335
TAFADL
TAF
PADL 242335Z 2500/2524 18011G19KT P6SM SCT030 BKN080
     FM251200 17002KT 1SM BR BKN003
     FM251800 09005KT P6SM SCT007 BKN070=

USA.gov is the U.S. government's official web portal to all federal, state and local government web resources and services.